Baltic Mariner I — 9HA3691 — position and weather

sailwx.info

Track history (hours):
 
Tides and Currents Weather Stations Pressure Air Temp Water Temp Dewpoint Dewpoint Depression Visibility Wind Speed Wind Dir Waves Ship Positions

Baltic Mariner I

Last reported at 2018-Jun-25 02:00 UTC. Time now 2018-Jun-25 01:59 UTC.
Position N 54°24' E 018°43'.

Length 182 m; draft 11.2 m.

Type: Ship. MMSI: 229882000.

Date/timePositionNaut miles runAvg speedWind from/ knotsBaromVisibWave heightAir tempDewpointWater temp
2018-Jun-25 02:00N 54°24' E 018°43'0 0.0
2018-Jun-25 01:27N 54°24' E 018°43'0 0.0
2018-Jun-25 01:00N 54°24' E 018°43'0 0.0
2018-Jun-25 00:30N 54°24' E 018°43'0 0.0
2018-Jun-25 00:00N 54°24' E 018°43'0 0.0
2018-Jun-24 23:30N 54°24' E 018°43'0 0.0
2018-Jun-24 23:00N 54°24' E 018°43'0 0.0
2018-Jun-24 22:30N 54°24' E 018°43'0 0.0
2018-Jun-24 22:00N 54°24' E 018°43'0 0.0
2018-Jun-24 21:31N 54°24' E 018°43'0 0.3
2018-Jun-24 21:00N 54°24' E 018°43'3 5.1
2018-Jun-24 20:31N 54°25' E 018°47'5 9.0
2018-Jun-24 20:00N 54°26' E 018°55'612.3
2018-Jun-24 19:30N 54°31' E 019°00'713.2
2018-Jun-24 19:01N 54°38' E 019°04'713.6
2018-Jun-24 18:31N 54°44' E 019°02'713.7
2018-Jun-24 18:00N 54°51' E 019°01'713.8
2018-Jun-24 17:30N 54°58' E 018°60'713.8
2018-Jun-24 17:00N 55°05' E 018°58'28811.0
2018-Jun-23 14:56N 59°29' E 022°29'812.1
2018-Jun-23 14:16N 59°33' E 022°43'312.4
2018-Jun-23 14:00N 59°33' E 022°49'612.5
2018-Jun-23 13:30N 59°35' E 023°01'612.7
2018-Jun-23 13:00N 59°37' E 023°13'612.9
2018-Jun-23 12:30N 59°39' E 023°25'612.8
2018-Jun-23 12:00N 59°41' E 023°37'612.7
2018-Jun-23 11:30N 59°43' E 023°49'612.5
2018-Jun-23 11:01N 59°44' E 024°02'612.7
2018-Jun-23 10:30N 59°45' E 024°14'612.7
2018-Jun-23 10:00N 59°47' E 024°26'612.7
2018-Jun-23 09:30N 59°48' E 024°39'612.6
2018-Jun-23 09:01N 59°50' E 024°51'612.2
2018-Jun-23 08:30N 59°51' E 025°02'611.8
2018-Jun-23 08:01N 59°52' E 025°14'611.5
2018-Jun-23 07:30N 59°55' E 025°24'611.8
2018-Jun-23 07:00N 59°55' E 025°36'611.7
2018-Jun-23 06:30N 59°56' E 025°48'1312.1
2018-Jun-23 05:28N 59°59' E 026°12'510.9
2018-Jun-23 05:00N 59°60' E 026°22'611.4
2018-Jun-23 04:30N 60°01' E 026°33'611.6
2018-Jun-23 04:01N 60°01' E 026°44'611.1
2018-Jun-23 03:30N 60°00' E 026°55'712.4
2018-Jun-23 02:56N 60°01' E 027°09'5 9.2
2018-Jun-23 02:26N 60°04' E 027°17'511.3
2018-Jun-23 01:59N 60°06' E 027°26'511.1
2018-Jun-23 01:30N 60°09' E 027°35'611.1
2018-Jun-23 01:00N 60°12' E 027°45'510.8
2018-Jun-23 00:30N 60°11' E 027°56'511.0
2018-Jun-23 00:00N 60°09' E 028°06'511.0
2018-Jun-22 23:31N 60°08' E 028°17'510.3
2018-Jun-22 23:00N 60°08' E 028°27'510.5
2018-Jun-22 22:30N 60°10' E 028°37'5 9.8
2018-Jun-22 21:59N 60°13' E 028°45'4 7.9
2018-Jun-22 21:30N 60°17' E 028°46'3 3.7
2018-Jun-22 20:45N 60°19' E 028°44'0 0.0
2018-Jun-22 20:18N 60°19' E 028°44'0 0.0
2018-Jun-22 19:51N 60°19' E 028°44'0 0.0
2018-Jun-22 19:27N 60°19' E 028°44'0 0.0
2018-Jun-22 18:18N 60°19' E 028°44'0 0.0
2018-Jun-22 17:46N 60°19' E 028°44'0 0.0
2018-Jun-22 17:31N 60°19' E 028°44'0 0.0
2018-Jun-22 17:00N 60°19' E 028°44'0 0.0
2018-Jun-22 16:20N 60°19' E 028°44'0 0.0
2018-Jun-22 16:00N 60°19' E 028°44'0 0.0
2018-Jun-22 15:15N 60°19' E 028°44'0 0.0
2018-Jun-22 14:51N 60°19' E 028°44'0 0.0
2018-Jun-22 14:30N 60°19' E 028°44'0 0.0
2018-Jun-22 14:00N 60°19' E 028°44'0 0.0
2018-Jun-22 13:29N 60°19' E 028°44'0 0.0
2018-Jun-22 12:57N 60°19' E 028°44'0 0.0
2018-Jun-22 12:26N 60°19' E 028°44'0 0.0
2018-Jun-22 11:59N 60°19' E 028°44'0 0.0
2018-Jun-22 11:29N 60°19' E 028°44'0 0.0
2018-Jun-22 10:59N 60°19' E 028°44'0 0.0
2018-Jun-22 10:30N 60°19' E 028°44'0 0.0
2018-Jun-22 09:58N 60°19' E 028°44'0 0.0
2018-Jun-22 09:28N 60°19' E 028°44'0 0.0
2018-Jun-22 08:59N 60°19' E 028°44'0 0.0
2018-Jun-22 08:28N 60°19' E 028°44'0 0.0
2018-Jun-22 07:55N 60°19' E 028°44'0 0.0
2018-Jun-22 07:21N 60°19' E 028°44'0 0.0
2018-Jun-22 07:00N 60°19' E 028°44'0 0.0
2018-Jun-22 06:30N 60°19' E 028°44'0 0.0
2018-Jun-22 06:00N 60°19' E 028°44'0 0.0
2018-Jun-22 05:30N 60°19' E 028°44'0 0.0
2018-Jun-22 04:56N 60°19' E 028°44'0 0.0
2018-Jun-22 04:30N 60°19' E 028°44'0 0.0
2018-Jun-22 03:59N 60°19' E 028°44'0 0.0
2018-Jun-22 03:29N 60°19' E 028°44'0 0.0
2018-Jun-22 02:58N 60°19' E 028°44'0 0.0
2018-Jun-22 02:29N 60°19' E 028°44'0 0.0
2018-Jun-22 01:58N 60°19' E 028°44'0 0.0
2018-Jun-22 01:30N 60°19' E 028°44'0 0.0
2018-Jun-22 01:00N 60°19' E 028°44'0 0.0
2018-Jun-22 00:28N 60°19' E 028°44'0 0.0
2018-Jun-22 00:00N 60°19' E 028°44'0 0.0
2018-Jun-21 23:29N 60°19' E 028°44'0 0.0
2018-Jun-21 23:00N 60°19' E 028°44'0 0.0
2018-Jun-21 22:28N 60°19' E 028°44'0 0.0
2018-Jun-21 21:59N 60°19' E 028°44'0 0.0
2018-Jun-21 21:29N 60°19' E 028°44'0 0.0
2018-Jun-21 20:59N 60°19' E 028°44'0 0.0
2018-Jun-21 20:27N 60°19' E 028°44'0 0.4
2018-Jun-21 20:00N 60°19' E 028°44'3 5.6
2018-Jun-21 19:30N 60°17' E 028°46'4 8.9
2018-Jun-21 19:00N 60°12' E 028°45'510.0
2018-Jun-21 18:30N 60°09' E 028°37'714.2
2018-Jun-21 18:01N 60°08' E 028°24'713.7
2018-Jun-21 17:30N 60°08' E 028°10'713.9
2018-Jun-21 17:00N 60°09' E 027°56'613.0
2018-Jun-21 16:30N 60°10' E 027°43'714.2
2018-Jun-21 16:00N 60°06' E 027°31'714.4
2018-Jun-21 15:30N 60°02' E 027°18'814.3
2018-Jun-21 14:59N 59°59' E 027°05'714.7
2018-Jun-21 14:29N 59°59' E 026°51'613.5
2018-Jun-21 14:00N 59°59' E 026°38'714.4
2018-Jun-21 13:30N 59°58' E 026°24'2313.7
2018-Jun-21 11:51N 59°51' E 025°40'514.1
2018-Jun-21 11:30N 59°50' E 025°31'713.9
2018-Jun-21 11:00N 59°48' E 025°17'713.8
2018-Jun-21 10:30N 59°47' E 025°04'713.7
2018-Jun-21 10:00N 59°43' E 024°53'713.5
2018-Jun-21 09:30N 59°37' E 024°49'1 2.4
2018-Jun-21 09:00N 59°36' E 024°48'0 0.0
2018-Jun-21 08:28N 59°36' E 024°48'0 0.0
2018-Jun-21 07:58N 59°36' E 024°48'0 0.1
2018-Jun-21 07:29N 59°36' E 024°48'0 0.1
2018-Jun-21 06:58N 59°36' E 024°48'0 0.1
2018-Jun-21 06:30N 59°36' E 024°48'3 5.7
2018-Jun-21 06:00N 59°37' E 024°44'713.4
2018-Jun-21 05:30N 59°38' E 024°31'611.1
2018-Jun-21 05:00N 59°33' E 024°26'5 9.6
2018-Jun-21 04:29N 59°29' E 024°32'0 0.1
2018-Jun-21 03:58N 59°29' E 024°32'0 0.0
2018-Jun-21 03:28N 59°29' E 024°32'0 0.0
2018-Jun-21 02:58N 59°29' E 024°32'0 0.0
2018-Jun-21 02:28N 59°29' E 024°32'0 0.0
2018-Jun-21 01:58N 59°29' E 024°32'0 0.0
2018-Jun-21 01:28N 59°29' E 024°32'0 0.1
2018-Jun-21 00:58N 59°29' E 024°32'0 0.4
2018-Jun-21 00:29N 59°29' E 024°32'2 3.9
2018-Jun-21 00:01N 59°30' E 024°28'611.5
2018-Jun-20 23:30N 59°30' E 024°17'713.9
2018-Jun-20 22:59N 59°30' E 024°03'613.6
2018-Jun-20 22:30N 59°29' E 023°50'713.1
2018-Jun-20 22:00N 59°29' E 023°37'713.4
2018-Jun-20 21:29N 59°30' E 023°23'713.5
2018-Jun-20 20:58N 59°29' E 023°10'33312.8
2018-Jun-19 19:00N 55°40' E 015°39'913.6
2018-Jun-19 18:21N 55°37' E 015°25'613.5
2018-Jun-19 17:52N 55°33' E 015°15'513.8
2018-Jun-19 17:28N 55°31' E 015°06'713.9
2018-Jun-19 17:00N 55°28' E 014°56'713.8
2018-Jun-19 16:29N 55°24' E 014°45'613.4
2018-Jun-19 16:01N 55°21' E 014°35'713.1
2018-Jun-19 15:31N 55°16' E 014°28'713.6
2018-Jun-19 15:00N 55°10' E 014°21'610.8
2018-Jun-19 14:30N 55°09' E 014°11'713.6
2018-Jun-19 14:00N 55°10' E 013°60'1814.2
2018-Jun-19 12:44N 55°12' E 013°28'314.0
2018-Jun-19 12:30N 55°12' E 013°23'714.1
2018-Jun-19 12:00N 55°13' E 013°10'714.1
2018-Jun-19 11:30N 55°13' E 012°58'714.6
2018-Jun-19 11:00N 55°16' E 012°46'611.9
2018-Jun-19 10:30N 55°20' E 012°38'714.3
2018-Jun-19 10:00N 55°27' E 012°40'611.3
2018-Jun-19 09:30N 55°32' E 012°45'612.6
2018-Jun-19 09:00N 55°37' E 012°53'510.7
2018-Jun-19 08:30N 55°42' E 012°54'714.9
2018-Jun-19 08:00N 55°48' E 012°47'714.9
2018-Jun-19 07:30N 55°56' E 012°44'815.9
2018-Jun-19 07:00N 56°03' E 012°39'713.2
2018-Jun-19 06:30N 56°07' E 012°30'510.6
2018-Jun-19 06:00N 56°10' E 012°22'7111.5
2018-Jun-18 23:49N 57°16' E 011°32'712.5
2018-Jun-18 23:15N 57°23' E 011°28'312.3
2018-Jun-18 23:00N 57°25' E 011°25'612.3
2018-Jun-18 22:30N 57°30' E 011°18'612.0
2018-Jun-18 22:00N 57°34' E 011°10'611.7
2018-Jun-18 21:30N 57°38' E 011°02'612.0
2018-Jun-18 21:00N 57°43' E 010°54'812.0
2018-Jun-18 20:18N 57°48' E 010°42'32513.1
2018-Jun-17 19:27N 53°32' E 004°46'714.9
2018-Jun-17 19:00N 53°26' E 004°41'815.1
2018-Jun-17 18:28N 53°18' E 004°36'915.3
2018-Jun-17 17:55N 53°11' E 004°30'615.1
2018-Jun-17 17:29N 53°05' E 004°25'714.7
2018-Jun-17 17:00N 52°59' E 004°20'714.4
2018-Jun-17 16:30N 52°52' E 004°14'714.3
2018-Jun-17 16:00N 52°46' E 004°08'714.0
2018-Jun-17 15:29N 52°40' E 004°02'713.7
2018-Jun-17 14:59N 52°33' E 003°58'613.3
2018-Jun-17 14:30N 52°28' E 003°52'713.1
2018-Jun-17 14:00N 52°21' E 003°52'612.9
2018-Jun-17 13:30N 52°15' E 003°53'612.8
2018-Jun-17 13:00N 52°09' E 003°55'611.2
2018-Jun-17 12:30N 52°03' E 003°57'611.3
2018-Jun-17 12:00N 51°59' E 004°04'4 6.6
2018-Jun-17 11:28N 51°57' E 004°09'0 0.0
2018-Jun-17 10:58N 51°57' E 004°09'0 0.0
2018-Jun-17 10:28N 51°57' E 004°09'0 0.0
2018-Jun-17 09:58N 51°57' E 004°09'0 0.0
2018-Jun-17 09:28N 51°57' E 004°09'0 0.0
2018-Jun-17 08:58N 51°57' E 004°09'0 0.0
2018-Jun-17 08:28N 51°57' E 004°09'0 0.0
2018-Jun-17 07:58N 51°57' E 004°09'0 0.0
2018-Jun-17 07:28N 51°57' E 004°09'0 0.0
2018-Jun-17 06:58N 51°57' E 004°09'0 0.0
2018-Jun-17 06:28N 51°57' E 004°09'0 0.0
2018-Jun-17 05:58N 51°57' E 004°09'0 0.0
2018-Jun-17 05:28N 51°57' E 004°09'0 0.0
2018-Jun-17 04:58N 51°57' E 004°09'0 0.0
2018-Jun-17 04:28N 51°57' E 004°09'0 0.0
2018-Jun-17 03:58N 51°57' E 004°09'0 0.0
2018-Jun-17 03:28N 51°57' E 004°09'0 0.0
2018-Jun-17 02:58N 51°57' E 004°09'0 0.0
2018-Jun-17 02:28N 51°57' E 004°09'0 0.0
2018-Jun-17 01:58N 51°57' E 004°09'0 0.0
2018-Jun-17 01:28N 51°57' E 004°09'0 0.0
2018-Jun-17 00:58N 51°57' E 004°09'0 0.0
2018-Jun-17 00:28N 51°57' E 004°09'0 0.0
2018-Jun-16 23:58N 51°57' E 004°09'0 0.0
2018-Jun-16 23:28N 51°57' E 004°09'0 0.0
2018-Jun-16 22:58N 51°57' E 004°09'0 0.0
2018-Jun-16 22:25N 51°57' E 004°09'0 0.0
2018-Jun-16 21:58N 51°57' E 004°09'0 0.0
2018-Jun-16 21:28N 51°57' E 004°09'0 0.0
2018-Jun-16 20:58N 51°57' E 004°09'0 0.0
2018-Jun-16 20:28N 51°57' E 004°09'0 0.0
2018-Jun-16 19:58N 51°57' E 004°09'0 0.0
2018-Jun-16 19:28N 51°57' E 004°09'0 0.0
2018-Jun-16 18:58N 51°57' E 004°09'0 0.0
2018-Jun-16 18:28N 51°57' E 004°09'0 0.0
2018-Jun-16 17:58N 51°57' E 004°09'0 0.0
2018-Jun-16 17:28N 51°57' E 004°09'0 0.0
2018-Jun-16 16:58N 51°57' E 004°09'0 0.0
2018-Jun-16 16:28N 51°57' E 004°09'0 0.0
2018-Jun-16 15:58N 51°57' E 004°09'0 0.0
2018-Jun-16 15:28N 51°57' E 004°09'0 0.0
2018-Jun-16 14:58N 51°57' E 004°09'0 0.0
2018-Jun-16 14:28N 51°57' E 004°09'0 0.0
2018-Jun-16 13:58N 51°57' E 004°09'0 0.0
2018-Jun-16 13:28N 51°57' E 004°09'0 0.0
2018-Jun-16 12:58N 51°57' E 004°09'0 0.0
2018-Jun-16 12:28N 51°57' E 004°09'0 0.0
2018-Jun-16 11:58N 51°57' E 004°09'0 0.0
2018-Jun-16 11:28N 51°57' E 004°09'0 0.0
2018-Jun-16 10:58N 51°57' E 004°09'0 0.0
2018-Jun-16 10:28N 51°57' E 004°09'0 0.0
2018-Jun-16 09:58N 51°57' E 004°09'0 0.0
2018-Jun-16 09:28N 51°57' E 004°09'0 0.0
2018-Jun-16 08:58N 51°57' E 004°09'0 0.0
2018-Jun-16 08:28N 51°57' E 004°09'0 0.0
2018-Jun-16 07:58N 51°57' E 004°09'0 0.0
2018-Jun-16 07:28N 51°57' E 004°09'0 0.0
2018-Jun-16 06:58N 51°57' E 004°09'0 0.0
2018-Jun-16 06:28N 51°57' E 004°09'0 0.0
2018-Jun-16 05:58N 51°57' E 004°09'0 0.0
2018-Jun-16 05:28N 51°57' E 004°09'0 0.0
2018-Jun-16 04:58N 51°57' E 004°09'0 0.0
2018-Jun-16 04:28N 51°57' E 004°09'0 0.0
2018-Jun-16 03:58N 51°57' E 004°09'0 0.0
2018-Jun-16 03:28N 51°57' E 004°09'0 0.0
2018-Jun-16 02:58N 51°57' E 004°09'0 0.0
2018-Jun-16 02:28N 51°57' E 004°09'0 0.0
2018-Jun-16 01:58N 51°57' E 004°09'0 0.0
2018-Jun-16 01:28N 51°57' E 004°09'0 0.0
2018-Jun-16 00:58N 51°57' E 004°09'0 0.0
2018-Jun-16 00:28N 51°57' E 004°09'0 0.0
2018-Jun-15 23:58N 51°57' E 004°09'0 0.0
2018-Jun-15 23:28N 51°57' E 004°09'0 0.0
2018-Jun-15 22:58N 51°57' E 004°09'0 0.0
2018-Jun-15 22:25N 51°57' E 004°09'0 0.0
2018-Jun-15 21:58N 51°57' E 004°09'0 0.0
2018-Jun-15 21:29N 51°57' E 004°09'0 0.7
2018-Jun-15 21:01N 51°58' E 004°08'5 9.1
2018-Jun-15 20:30N 51°59' E 004°02'611.7
2018-Jun-15 20:01N 52°00' E 003°52'611.1
2018-Jun-15 19:31N 52°02' E 003°44'612.1
2018-Jun-15 19:01N 52°05' E 003°36'612.5
2018-Jun-15 18:30N 52°08' E 003°27'612.3
2018-Jun-15 18:01N 52°12' E 003°19'612.1
2018-Jun-15 17:30N 52°16' E 003°11'611.6
2018-Jun-15 17:01N 52°20' E 003°04'4 7.7
2018-Jun-15 16:30N 52°20' E 002°58'612.0
2018-Jun-15 16:00N 52°25' E 002°53'611.1
2018-Jun-15 15:30N 52°31' E 002°55'611.8
2018-Jun-15 15:01N 52°36' E 002°59'612.1
2018-Jun-15 14:30N 52°41' E 003°04'612.6
2018-Jun-15 14:01N 52°47' E 003°08'713.2
2018-Jun-15 13:31N 52°53' E 003°13'813.8
2018-Jun-15 12:56N 53°00' E 003°18'614.1
2018-Jun-15 12:30N 53°06' E 003°20'  
Track history (hours):
 
Tides and Currents Weather Stations Pressure Air Temp Water Temp Dewpoint Dewpoint Depression Visibility Wind Speed Wind Dir Waves Ship Positions

Baltic Mariner I

Last reported at 2018-Jun-25 02:00 UTC. Time now 2018-Jun-25 01:59 UTC.
Position N 54°24' E 018°43'.

Length 182 m; draft 11.2 m.

Type: Ship. MMSI: 229882000.

Date/timePositionNaut miles runAvg speedWind from/ knotsBaromVisibWave heightAir tempDewpointWater temp
2018-Jun-25 02:00N 54°24' E 018°43'0 0.0
2018-Jun-25 01:27N 54°24' E 018°43'0 0.0
2018-Jun-25 01:00N 54°24' E 018°43'0 0.0
2018-Jun-25 00:30N 54°24' E 018°43'0 0.0
2018-Jun-25 00:00N 54°24' E 018°43'0 0.0
2018-Jun-24 23:30N 54°24' E 018°43'0 0.0
2018-Jun-24 23:00N 54°24' E 018°43'0 0.0
2018-Jun-24 22:30N 54°24' E 018°43'0 0.0
2018-Jun-24 22:00N 54°24' E 018°43'0 0.0
2018-Jun-24 21:31N 54°24' E 018°43'0 0.3
2018-Jun-24 21:00N 54°24' E 018°43'3 5.1
2018-Jun-24 20:31N 54°25' E 018°47'5 9.0
2018-Jun-24 20:00N 54°26' E 018°55'612.3
2018-Jun-24 19:30N 54°31' E 019°00'713.2
2018-Jun-24 19:01N 54°38' E 019°04'713.6
2018-Jun-24 18:31N 54°44' E 019°02'713.7
2018-Jun-24 18:00N 54°51' E 019°01'713.8
2018-Jun-24 17:30N 54°58' E 018°60'713.8
2018-Jun-24 17:00N 55°05' E 018°58'28811.0
2018-Jun-23 14:56N 59°29' E 022°29'812.1
2018-Jun-23 14:16N 59°33' E 022°43'312.4
2018-Jun-23 14:00N 59°33' E 022°49'612.5
2018-Jun-23 13:30N 59°35' E 023°01'612.7
2018-Jun-23 13:00N 59°37' E 023°13'612.9
2018-Jun-23 12:30N 59°39' E 023°25'612.8
2018-Jun-23 12:00N 59°41' E 023°37'612.7
2018-Jun-23 11:30N 59°43' E 023°49'612.5
2018-Jun-23 11:01N 59°44' E 024°02'612.7
2018-Jun-23 10:30N 59°45' E 024°14'612.7
2018-Jun-23 10:00N 59°47' E 024°26'612.7
2018-Jun-23 09:30N 59°48' E 024°39'612.6
2018-Jun-23 09:01N 59°50' E 024°51'612.2
2018-Jun-23 08:30N 59°51' E 025°02'611.8
2018-Jun-23 08:01N 59°52' E 025°14'611.5
2018-Jun-23 07:30N 59°55' E 025°24'611.8
2018-Jun-23 07:00N 59°55' E 025°36'611.7
2018-Jun-23 06:30N 59°56' E 025°48'1312.1
2018-Jun-23 05:28N 59°59' E 026°12'510.9
2018-Jun-23 05:00N 59°60' E 026°22'611.4
2018-Jun-23 04:30N 60°01' E 026°33'611.6
2018-Jun-23 04:01N 60°01' E 026°44'611.1
2018-Jun-23 03:30N 60°00' E 026°55'712.4
2018-Jun-23 02:56N 60°01' E 027°09'5 9.2
2018-Jun-23 02:26N 60°04' E 027°17'511.3
2018-Jun-23 01:59N 60°06' E 027°26'511.1
2018-Jun-23 01:30N 60°09' E 027°35'611.1
2018-Jun-23 01:00N 60°12' E 027°45'510.8
2018-Jun-23 00:30N 60°11' E 027°56'511.0
2018-Jun-23 00:00N 60°09' E 028°06'511.0
2018-Jun-22 23:31N 60°08' E 028°17'510.3
2018-Jun-22 23:00N 60°08' E 028°27'510.5
2018-Jun-22 22:30N 60°10' E 028°37'5 9.8
2018-Jun-22 21:59N 60°13' E 028°45'4 7.9
2018-Jun-22 21:30N 60°17' E 028°46'3 3.7
2018-Jun-22 20:45N 60°19' E 028°44'0 0.0
2018-Jun-22 20:18N 60°19' E 028°44'0 0.0
2018-Jun-22 19:51N 60°19' E 028°44'0 0.0
2018-Jun-22 19:27N 60°19' E 028°44'0 0.0
2018-Jun-22 18:18N 60°19' E 028°44'0 0.0
2018-Jun-22 17:46N 60°19' E 028°44'0 0.0
2018-Jun-22 17:31N 60°19' E 028°44'0 0.0
2018-Jun-22 17:00N 60°19' E 028°44'0 0.0
2018-Jun-22 16:20N 60°19' E 028°44'0 0.0
2018-Jun-22 16:00N 60°19' E 028°44'0 0.0
2018-Jun-22 15:15N 60°19' E 028°44'0 0.0
2018-Jun-22 14:51N 60°19' E 028°44'0 0.0
2018-Jun-22 14:30N 60°19' E 028°44'0 0.0
2018-Jun-22 14:00N 60°19' E 028°44'0 0.0
2018-Jun-22 13:29N 60°19' E 028°44'0 0.0
2018-Jun-22 12:57N 60°19' E 028°44'0 0.0
2018-Jun-22 12:26N 60°19' E 028°44'0 0.0
2018-Jun-22 11:59N 60°19' E 028°44'0 0.0
2018-Jun-22 11:29N 60°19' E 028°44'0 0.0
2018-Jun-22 10:59N 60°19' E 028°44'0 0.0
2018-Jun-22 10:30N 60°19' E 028°44'0 0.0
2018-Jun-22 09:58N 60°19' E 028°44'0 0.0
2018-Jun-22 09:28N 60°19' E 028°44'0 0.0
2018-Jun-22 08:59N 60°19' E 028°44'0 0.0
2018-Jun-22 08:28N 60°19' E 028°44'0 0.0
2018-Jun-22 07:55N 60°19' E 028°44'0 0.0
2018-Jun-22 07:21N 60°19' E 028°44'0 0.0
2018-Jun-22 07:00N 60°19' E 028°44'0 0.0
2018-Jun-22 06:30N 60°19' E 028°44'0 0.0
2018-Jun-22 06:00N 60°19' E 028°44'0 0.0
2018-Jun-22 05:30N 60°19' E 028°44'0 0.0
2018-Jun-22 04:56N 60°19' E 028°44'0 0.0
2018-Jun-22 04:30N 60°19' E 028°44'0 0.0
2018-Jun-22 03:59N 60°19' E 028°44'0 0.0
2018-Jun-22 03:29N 60°19' E 028°44'0 0.0
2018-Jun-22 02:58N 60°19' E 028°44'0 0.0
2018-Jun-22 02:29N 60°19' E 028°44'0 0.0
2018-Jun-22 01:58N 60°19' E 028°44'0 0.0
2018-Jun-22 01:30N 60°19' E 028°44'0 0.0
2018-Jun-22 01:00N 60°19' E 028°44'0 0.0
2018-Jun-22 00:28N 60°19' E 028°44'0 0.0
2018-Jun-22 00:00N 60°19' E 028°44'0 0.0
2018-Jun-21 23:29N 60°19' E 028°44'0 0.0
2018-Jun-21 23:00N 60°19' E 028°44'0 0.0
2018-Jun-21 22:28N 60°19' E 028°44'0 0.0
2018-Jun-21 21:59N 60°19' E 028°44'0 0.0
2018-Jun-21 21:29N 60°19' E 028°44'0 0.0
2018-Jun-21 20:59N 60°19' E 028°44'0 0.0
2018-Jun-21 20:27N 60°19' E 028°44'0 0.4
2018-Jun-21 20:00N 60°19' E 028°44'3 5.6
2018-Jun-21 19:30N 60°17' E 028°46'4 8.9
2018-Jun-21 19:00N 60°12' E 028°45'510.0
2018-Jun-21 18:30N 60°09' E 028°37'714.2
2018-Jun-21 18:01N 60°08' E 028°24'713.7
2018-Jun-21 17:30N 60°08' E 028°10'713.9
2018-Jun-21 17:00N 60°09' E 027°56'613.0
2018-Jun-21 16:30N 60°10' E 027°43'714.2
2018-Jun-21 16:00N 60°06' E 027°31'714.4
2018-Jun-21 15:30N 60°02' E 027°18'814.3
2018-Jun-21 14:59N 59°59' E 027°05'714.7
2018-Jun-21 14:29N 59°59' E 026°51'613.5
2018-Jun-21 14:00N 59°59' E 026°38'714.4
2018-Jun-21 13:30N 59°58' E 026°24'2313.7
2018-Jun-21 11:51N 59°51' E 025°40'514.1
2018-Jun-21 11:30N 59°50' E 025°31'713.9
2018-Jun-21 11:00N 59°48' E 025°17'713.8
2018-Jun-21 10:30N 59°47' E 025°04'713.7
2018-Jun-21 10:00N 59°43' E 024°53'713.5
2018-Jun-21 09:30N 59°37' E 024°49'1 2.4
2018-Jun-21 09:00N 59°36' E 024°48'0 0.0
2018-Jun-21 08:28N 59°36' E 024°48'0 0.0
2018-Jun-21 07:58N 59°36' E 024°48'0 0.1
2018-Jun-21 07:29N 59°36' E 024°48'0 0.1
2018-Jun-21 06:58N 59°36' E 024°48'0 0.1
2018-Jun-21 06:30N 59°36' E 024°48'3 5.7
2018-Jun-21 06:00N 59°37' E 024°44'713.4
2018-Jun-21 05:30N 59°38' E 024°31'611.1
2018-Jun-21 05:00N 59°33' E 024°26'5 9.6
2018-Jun-21 04:29N 59°29' E 024°32'0 0.1
2018-Jun-21 03:58N 59°29' E 024°32'0 0.0
2018-Jun-21 03:28N 59°29' E 024°32'0 0.0
2018-Jun-21 02:58N 59°29' E 024°32'0 0.0
2018-Jun-21 02:28N 59°29' E 024°32'0 0.0
2018-Jun-21 01:58N 59°29' E 024°32'0 0.0
2018-Jun-21 01:28N 59°29' E 024°32'0 0.1
2018-Jun-21 00:58N 59°29' E 024°32'0 0.4
2018-Jun-21 00:29N 59°29' E 024°32'2 3.9
2018-Jun-21 00:01N 59°30' E 024°28'611.5
2018-Jun-20 23:30N 59°30' E 024°17'713.9
2018-Jun-20 22:59N 59°30' E 024°03'613.6
2018-Jun-20 22:30N 59°29' E 023°50'713.1
2018-Jun-20 22:00N 59°29' E 023°37'713.4
2018-Jun-20 21:29N 59°30' E 023°23'713.5
2018-Jun-20 20:58N 59°29' E 023°10'33312.8
2018-Jun-19 19:00N 55°40' E 015°39'913.6
2018-Jun-19 18:21N 55°37' E 015°25'613.5
2018-Jun-19 17:52N 55°33' E 015°15'513.8
2018-Jun-19 17:28N 55°31' E 015°06'713.9
2018-Jun-19 17:00N 55°28' E 014°56'713.8
2018-Jun-19 16:29N 55°24' E 014°45'613.4
2018-Jun-19 16:01N 55°21' E 014°35'713.1
2018-Jun-19 15:31N 55°16' E 014°28'713.6
2018-Jun-19 15:00N 55°10' E 014°21'610.8
2018-Jun-19 14:30N 55°09' E 014°11'713.6
2018-Jun-19 14:00N 55°10' E 013°60'1814.2
2018-Jun-19 12:44N 55°12' E 013°28'314.0
2018-Jun-19 12:30N 55°12' E 013°23'714.1
2018-Jun-19 12:00N 55°13' E 013°10'714.1
2018-Jun-19 11:30N 55°13' E 012°58'714.6
2018-Jun-19 11:00N 55°16' E 012°46'611.9
2018-Jun-19 10:30N 55°20' E 012°38'714.3
2018-Jun-19 10:00N 55°27' E 012°40'611.3
2018-Jun-19 09:30N 55°32' E 012°45'612.6
2018-Jun-19 09:00N 55°37' E 012°53'510.7
2018-Jun-19 08:30N 55°42' E 012°54'714.9
2018-Jun-19 08:00N 55°48' E 012°47'714.9
2018-Jun-19 07:30N 55°56' E 012°44'815.9
2018-Jun-19 07:00N 56°03' E 012°39'713.2
2018-Jun-19 06:30N 56°07' E 012°30'510.6
2018-Jun-19 06:00N 56°10' E 012°22'7111.5
2018-Jun-18 23:49N 57°16' E 011°32'712.5
2018-Jun-18 23:15N 57°23' E 011°28'312.3
2018-Jun-18 23:00N 57°25' E 011°25'612.3
2018-Jun-18 22:30N 57°30' E 011°18'612.0
2018-Jun-18 22:00N 57°34' E 011°10'611.7
2018-Jun-18 21:30N 57°38' E 011°02'612.0
2018-Jun-18 21:00N 57°43' E 010°54'812.0
2018-Jun-18 20:18N 57°48' E 010°42'32513.1
2018-Jun-17 19:27N 53°32' E 004°46'714.9
2018-Jun-17 19:00N 53°26' E 004°41'815.1
2018-Jun-17 18:28N 53°18' E 004°36'915.3
2018-Jun-17 17:55N 53°11' E 004°30'615.1
2018-Jun-17 17:29N 53°05' E 004°25'714.7
2018-Jun-17 17:00N 52°59' E 004°20'714.4
2018-Jun-17 16:30N 52°52' E 004°14'714.3
2018-Jun-17 16:00N 52°46' E 004°08'714.0
2018-Jun-17 15:29N 52°40' E 004°02'713.7
2018-Jun-17 14:59N 52°33' E 003°58'613.3
2018-Jun-17 14:30N 52°28' E 003°52'713.1
2018-Jun-17 14:00N 52°21' E 003°52'612.9
2018-Jun-17 13:30N 52°15' E 003°53'612.8
2018-Jun-17 13:00N 52°09' E 003°55'611.2
2018-Jun-17 12:30N 52°03' E 003°57'611.3
2018-Jun-17 12:00N 51°59' E 004°04'4 6.6
2018-Jun-17 11:28N 51°57' E 004°09'0 0.0
2018-Jun-17 10:58N 51°57' E 004°09'0 0.0
2018-Jun-17 10:28N 51°57' E 004°09'0 0.0
2018-Jun-17 09:58N 51°57' E 004°09'0 0.0
2018-Jun-17 09:28N 51°57' E 004°09'0 0.0
2018-Jun-17 08:58N 51°57' E 004°09'0 0.0
2018-Jun-17 08:28N 51°57' E 004°09'0 0.0
2018-Jun-17 07:58N 51°57' E 004°09'0 0.0
2018-Jun-17 07:28N 51°57' E 004°09'0 0.0
2018-Jun-17 06:58N 51°57' E 004°09'0 0.0
2018-Jun-17 06:28N 51°57' E 004°09'0 0.0
2018-Jun-17 05:58N 51°57' E 004°09'0 0.0
2018-Jun-17 05:28N 51°57' E 004°09'0 0.0
2018-Jun-17 04:58N 51°57' E 004°09'0 0.0
2018-Jun-17 04:28N 51°57' E 004°09'0 0.0
2018-Jun-17 03:58N 51°57' E 004°09'0 0.0
2018-Jun-17 03:28N 51°57' E 004°09'0 0.0
2018-Jun-17 02:58N 51°57' E 004°09'0 0.0
2018-Jun-17 02:28N 51°57' E 004°09'0 0.0
2018-Jun-17 01:58N 51°57' E 004°09'0 0.0
2018-Jun-17 01:28N 51°57' E 004°09'0 0.0
2018-Jun-17 00:58N 51°57' E 004°09'0 0.0
2018-Jun-17 00:28N 51°57' E 004°09'0 0.0
2018-Jun-16 23:58N 51°57' E 004°09'0 0.0
2018-Jun-16 23:28N 51°57' E 004°09'0 0.0
2018-Jun-16 22:58N 51°57' E 004°09'0 0.0
2018-Jun-16 22:25N 51°57' E 004°09'0 0.0
2018-Jun-16 21:58N 51°57' E 004°09'0 0.0
2018-Jun-16 21:28N 51°57' E 004°09'0 0.0
2018-Jun-16 20:58N 51°57' E 004°09'0 0.0
2018-Jun-16 20:28N 51°57' E 004°09'0 0.0
2018-Jun-16 19:58N 51°57' E 004°09'0 0.0
2018-Jun-16 19:28N 51°57' E 004°09'0 0.0
2018-Jun-16 18:58N 51°57' E 004°09'0 0.0
2018-Jun-16 18:28N 51°57' E 004°09'0 0.0
2018-Jun-16 17:58N 51°57' E 004°09'0 0.0
2018-Jun-16 17:28N 51°57' E 004°09'0 0.0
2018-Jun-16 16:58N 51°57' E 004°09'0 0.0
2018-Jun-16 16:28N 51°57' E 004°09'0 0.0
2018-Jun-16 15:58N 51°57' E 004°09'0 0.0
2018-Jun-16 15:28N 51°57' E 004°09'0 0.0
2018-Jun-16 14:58N 51°57' E 004°09'0 0.0
2018-Jun-16 14:28N 51°57' E 004°09'0 0.0
2018-Jun-16 13:58N 51°57' E 004°09'0 0.0
2018-Jun-16 13:28N 51°57' E 004°09'0 0.0
2018-Jun-16 12:58N 51°57' E 004°09'0 0.0
2018-Jun-16 12:28N 51°57' E 004°09'0 0.0
2018-Jun-16 11:58N 51°57' E 004°09'0 0.0
2018-Jun-16 11:28N 51°57' E 004°09'0 0.0
2018-Jun-16 10:58N 51°57' E 004°09'0 0.0
2018-Jun-16 10:28N 51°57' E 004°09'0 0.0
2018-Jun-16 09:58N 51°57' E 004°09'0 0.0
2018-Jun-16 09:28N 51°57' E 004°09'0 0.0
2018-Jun-16 08:58N 51°57' E 004°09'0 0.0
2018-Jun-16 08:28N 51°57' E 004°09'0 0.0
2018-Jun-16 07:58N 51°57' E 004°09'0 0.0
2018-Jun-16 07:28N 51°57' E 004°09'0 0.0
2018-Jun-16 06:58N 51°57' E 004°09'0 0.0
2018-Jun-16 06:28N 51°57' E 004°09'0 0.0
2018-Jun-16 05:58N 51°57' E 004°09'0 0.0
2018-Jun-16 05:28N 51°57' E 004°09'0 0.0
2018-Jun-16 04:58N 51°57' E 004°09'0 0.0
2018-Jun-16 04:28N 51°57' E 004°09'0 0.0
2018-Jun-16 03:58N 51°57' E 004°09'0 0.0
2018-Jun-16 03:28N 51°57' E 004°09'0 0.0
2018-Jun-16 02:58N 51°57' E 004°09'0 0.0
2018-Jun-16 02:28N 51°57' E 004°09'0 0.0
2018-Jun-16 01:58N 51°57' E 004°09'0 0.0
2018-Jun-16 01:28N 51°57' E 004°09'0 0.0
2018-Jun-16 00:58N 51°57' E 004°09'0 0.0
2018-Jun-16 00:28N 51°57' E 004°09'0 0.0
2018-Jun-15 23:58N 51°57' E 004°09'0 0.0
2018-Jun-15 23:28N 51°57' E 004°09'0 0.0
2018-Jun-15 22:58N 51°57' E 004°09'0 0.0
2018-Jun-15 22:25N 51°57' E 004°09'0 0.0
2018-Jun-15 21:58N 51°57' E 004°09'0 0.0
2018-Jun-15 21:29N 51°57' E 004°09'0 0.7
2018-Jun-15 21:01N 51°58' E 004°08'5 9.1
2018-Jun-15 20:30N 51°59' E 004°02'611.7
2018-Jun-15 20:01N 52°00' E 003°52'611.1
2018-Jun-15 19:31N 52°02' E 003°44'612.1
2018-Jun-15 19:01N 52°05' E 003°36'612.5
2018-Jun-15 18:30N 52°08' E 003°27'612.3
2018-Jun-15 18:01N 52°12' E 003°19'612.1
2018-Jun-15 17:30N 52°16' E 003°11'611.6
2018-Jun-15 17:01N 52°20' E 003°04'4 7.7
2018-Jun-15 16:30N 52°20' E 002°58'612.0
2018-Jun-15 16:00N 52°25' E 002°53'611.1
2018-Jun-15 15:30N 52°31' E 002°55'611.8
2018-Jun-15 15:01N 52°36' E 002°59'612.1
2018-Jun-15 14:30N 52°41' E 003°04'612.6
2018-Jun-15 14:01N 52°47' E 003°08'713.2
2018-Jun-15 13:31N 52°53' E 003°13'813.8
2018-Jun-15 12:56N 53°00' E 003°18'614.1
2018-Jun-15 12:30N 53°06' E 003°20'  

Dump ship's entire track history